x

South Santa Rosa Is. Ca (46069) Wave Buoy

6:50am - Mon 26th Sep 2016 All times are PDT. -7 hours from GMT.

  • Sig Wave height 4.9ft
  • Swell Direction
  • Peak Period 16s
  • Average Period 8s
  • Wind
    7mph, 9mph gusts
  • Sea Temp 62°f
  • Air Temp 68°f
  • Sea Pressure 1013mb
  • South Santa Rosa Is. Ca
  • South Santa Rosa Is. Ca

More Historic Weather Station data

Upgrade to MSW Pro to gain access to the past 30 days of data for over 8000 Wavebouys and Weather Stations around the globe.

Join Pro

Comparision Forecast

View Surf forecast
   
Mon 09/26 6:50am 5ft 16s 8s 7 9 mph 1013mb 62f 68f
5:50am 5ft 15s 8s 4
mph
1012.5mb 63f 67f
4:50am 4.5ft 15s 8s 4
mph
1012.2mb 62f 66f
3:50am 5ft 15s 8s 7 9 mph 1012.1mb 62f 66f
2:50am 5ft 16s 8s 9
mph
1012.4mb 62f 65f
1:50am 5ft 15s 7s 11 13 mph 1012.8mb 62f 67f
12:50am 5ft 16s 8s 9 11 mph 1013.1mb 62f 67f
Sun 09/25 11:50pm 5.5ft 15s 8s 13 16 mph 1013.1mb 62f 66f
10:50pm 5ft 9s 7s 16 20 mph 1013.1mb 62f 67f
9:50pm 5ft 16s 8s 13 16 mph 1013.7mb 63f 66f
8:50pm 5ft 15s 8s 13
mph
1013.5mb 63f 65f
7:50pm 5.5ft 16s 8s 18 20 mph 1013.1mb 63f 66f
6:50pm 6ft 16s 9s 9
mph
1013.3mb 63f 64f
5:50pm 5ft 16s 8s 7
mph
1013.4mb 63f 65f
4:50pm 5.5ft 16s 8s 11 13 mph 1013.5mb 63f 65f
3:50pm 5ft 16s 8s 11
mph
1014.2mb 64f 65f
2:50pm 5ft 16s 8s 7 9 mph 1014.6mb 64f 65f
1:50pm 5ft 16s 8s 4 7 mph 1015.2mb 64f 65f
12:50pm 5ft 16s 9s 4
mph
1016mb 64f 64f
11:50am 5ft 16s 9s 4 7 mph 1016.3mb 63f 64f
10:50am 5.5ft 16s 9s 4 7 mph 1016.7mb 62f 63f
9:50am 5ft 16s 8s 4 7 mph 1016.7mb 62f 62f
8:50am 5.5ft 16s 8s 4
mph
1016.3mb 62f 62f
7:50am 5ft 16s 8s  -  2 mph 1015.9mb 62f 63f
6:50am 5ft 16s 8s 2 4 mph 1015.1mb 61f 61f
5:50am 5ft 16s 8s 4
mph
1014.6mb 61f 61f
4:50am 5ft 12s 8s 4 7 mph 1014.3mb 61f 62f
3:50am 5ft 16s 8s 9
mph
1013.9mb 61f 62f
2:50am 5ft 16s 7s 11
mph
1014.4mb 61f 61f
1:50am 5ft 16s 8s 11
mph
1014.7mb 61f 61f
12:50am 4.5ft 16s 6s 9 11 mph 1014.9mb 61f 62f
Sat 09/24 11:50pm 5ft 16s 7s 13
mph
1015mb 61f 62f
10:50pm 5ft 16s 7s 13 16 mph 1015.1mb 62f 62f
9:50pm 5ft 16s 7s 13 16 mph 1015.2mb 62f 62f
8:50pm 5.5ft 17s 8s 16 18 mph 1015.2mb 62f 62f
7:50pm 5ft 16s 7s 16 18 mph 1014.9mb 62f 62f
6:50pm 5.5ft 16s 7s 13 16 mph 1015mb 62f 62f
5:50pm 5ft 16s 7s 18 20 mph 1014.7mb 62f 63f
4:50pm 5ft 16s 8s 13 16 mph 1014.9mb 63f 64f
3:50pm 6ft 17s 8s 11 13 mph 1015.3mb 63f 64f
2:50pm 5.5ft 17s 8s 11
mph
1015.6mb 63f 63f
1:50pm 5.5ft 17s 8s 4 7 mph 1016mb 63f 64f
12:50pm 5ft 17s 7s 4 7 mph 1016.4mb 62f 63f
11:50am 5.5ft 17s 8s 7 9 mph 1016.7mb 62f 63f
10:50am 5.5ft 17s 7s 7 9 mph 1016.8mb 62f 63f
9:50am 6.5ft 17s 8s 4
mph
1016.4mb 61f 62f
8:50am 7ft 17s 8s 4
mph
1015.8mb 61f 62f
7:50am 7ft 17s 8s 11 13 mph 1015.5mb 61f 62f
6:50am 7ft 17s 7s 13 16 mph 1015mb 61f 62f
5:50am 7ft 17s 7s 16 20 mph 1014.6mb 61f 62f
4:50am 8ft 17s 7s 18 20 mph 1014.4mb 61f 61f
3:50am 7.5ft 9s 6s 20 22 mph 1014.3mb 61f 61f
2:50am 8ft 8s 7s 22 27 mph 1014.7mb 61f 61f
1:50am 8ft 17s 7s 20 25 mph 1014.8mb 61f 61f
12:50am 7.5ft 17s 6s 20 25 mph 1014.9mb 61f 61f
Fri 09/23 11:50pm 8ft 17s 7s 20 27 mph 1015mb 61f 61f
10:50pm 8.5ft 8s 6s 25 29 mph 1014.9mb 61f 61f
9:50pm 8ft 17s 6s 27 34 mph 1015mb 61f 61f
8:50pm 8.5ft 8s 6s 29 36 mph 1014.8mb 60f 62f
7:50pm 8ft 17s 6s 29 36 mph 1014.7mb 61f 62f
6:50pm 8ft 9s 6s 29 36 mph 1014.6mb 61f 62f
5:50pm 8.5ft 19s 7s 27 34 mph 1014.8mb 61f 62f
4:50pm 8ft 17s 6s 27 34 mph 1014.9mb 61f 61f
3:50pm 8ft 8s 6s 25 29 mph 1015.6mb 61f 60f
2:50pm 8ft 8s 7s 22 25 mph 1016.2mb 61f 60f
1:50pm 8ft 19s 7s 25 29 mph 1016.4mb 61f 60f
12:50pm 8.5ft 19s 7s 22 29 mph 1017.1mb 61f 60f
10:50am 9ft 8s 7s 25 31 mph 1017.5mb 61f 60f
9:50am 8ft 9s 7s 25 31 mph 1016.7mb 61f 59f
8:50am 9ft 8s 7s 27 31 mph 1016.2mb 60f 59f
7:50am 9ft 8s 7s 27 31 mph 1015.9mb 60f 59f
5:50am 9ft 9s 6s 27 31 mph 1015.2mb 60f 59f
4:50am 9ft 8s 6s 25 29 mph 1015mb 60f 59f
3:50am 9ft 9s 6s 27 34 mph 1014.7mb 60f 59f
2:50am 9ft 9s 7s 25 29 mph 1015.1mb 61f 59f
1:50am 9.5ft 9s 7s 27 34 mph 1014.8mb 61f 59f
12:50am 10ft 9s 7s 27 31 mph 1015.1mb 61f 59f
Thu 09/22 11:50pm 9.5ft 9s 7s 27 31 mph 1015.1mb 61f 59f
10:50pm 10ft 9s 7s 27 34 mph 1015.2mb 61f 59f
9:50pm 10.5ft 8s 6s 29 34 mph 1014.9mb 61f 60f
8:50pm 10ft 10s 7s 29 38 mph 1014.6mb 61f 60f
7:50pm 11ft 8s 7s 29 38 mph 1013.6mb 61f 60f
6:50pm 11ft 8s 7s 31 40 mph 1013.4mb 61f 60f
5:50pm 11ft 9s 7s 31 40 mph 1013.3mb 61f 60f
4:50pm 10ft 8s 7s 31 40 mph 1013.4mb 61f 60f
3:50pm 10ft 9s 7s 29 36 mph 1014mb 61f 60f
2:50pm 10.5ft 9s 7s 31 38 mph 1014mb 61f 60f